createdAt,value
2022-09-12T00:04:55.241Z,4.50
2022-09-12T00:07:26.324Z,4.70
2022-09-12T00:09:57.385Z,4.80
2022-09-12T00:12:28.344Z,5.00
2022-09-12T00:15:00.661Z,4.50
2022-09-12T00:17:31.491Z,4.80
2022-09-12T00:20:02.787Z,4.90
2022-09-12T00:22:33.960Z,4.80
2022-09-12T00:25:06.015Z,5.00
2022-09-12T00:27:36.964Z,5.00
2022-09-12T00:30:09.759Z,5.10
2022-09-12T00:32:40.620Z,5.90
2022-09-12T00:35:11.666Z,5.60
2022-09-12T00:37:42.717Z,5.60
2022-09-12T00:40:13.980Z,4.70
2022-09-12T00:42:44.752Z,5.80
2022-09-12T00:45:25.549Z,5.30
2022-09-12T00:47:58.392Z,5.30
2022-09-12T00:50:29.685Z,5.80
2022-09-12T00:53:05.445Z,4.80
2022-09-12T00:55:41.503Z,5.30
2022-09-12T00:58:15.969Z,5.40
2022-09-12T01:00:47.516Z,4.60
2022-09-12T01:03:20.809Z,5.10
2022-09-12T01:06:00.644Z,5.40
2022-09-12T01:08:34.158Z,5.10
2022-09-12T01:11:05.404Z,4.50
2022-09-12T01:13:37.568Z,5.00
2022-09-12T01:16:09.950Z,5.10
2022-09-12T01:18:52.562Z,4.70
2022-09-12T01:21:34.992Z,4.80
2022-09-12T01:24:28.966Z,4.70
2022-09-12T01:27:20.424Z,4.50
2022-09-12T01:30:30.194Z,4.40
2022-09-12T01:33:21.801Z,4.30
2022-09-12T01:36:04.640Z,4.60
2022-09-12T01:38:40.716Z,4.20
2022-09-12T01:41:23.682Z,4.10
2022-09-12T01:44:03.164Z,3.90
2022-09-12T01:46:39.441Z,3.90
2022-09-12T01:49:17.024Z,4.30
2022-09-12T01:51:57.022Z,3.50
2022-09-12T01:54:31.816Z,3.90
2022-09-12T01:57:09.878Z,3.90
2022-09-12T01:59:46.280Z,4.30
2022-09-12T02:02:21.584Z,3.40
2022-09-12T02:04:59.729Z,3.30
2022-09-12T02:07:37.364Z,3.40
2022-09-12T02:10:13.681Z,3.30
2022-09-12T02:12:47.551Z,2.90
2022-09-12T02:15:24.849Z,3.50
2022-09-12T02:17:59.296Z,3.40
2022-09-12T02:20:47.885Z,3.50
2022-09-12T02:23:23.706Z,3.20
2022-09-12T02:25:58.815Z,3.40
2022-09-12T02:28:35.736Z,3.40
2022-09-12T02:31:18.441Z,3.70
2022-09-12T02:33:59.105Z,3.50
2022-09-12T02:36:40.234Z,3.30
2022-09-12T02:39:11.612Z,3.10
2022-09-12T02:41:42.583Z,3.20
2022-09-12T02:46:47.489Z,3.30
2022-09-12T02:49:18.629Z,4.20
2022-09-12T02:51:50.875Z,3.80
2022-09-12T02:54:22.210Z,3.60
2022-09-12T02:56:53.096Z,3.50
2022-09-12T02:59:26.443Z,3.60
2022-09-12T03:02:14.704Z,3.50
2022-09-12T03:05:03.236Z,3.20
2022-09-12T03:07:51.217Z,3.40
2022-09-12T03:10:29.713Z,3.30
2022-09-12T03:13:19.638Z,3.80
2022-09-12T03:16:04.240Z,4.10
2022-09-12T03:18:47.517Z,4.10
2022-09-12T03:21:27.435Z,4.30
2022-09-12T03:24:10.441Z,4.20
2022-09-12T03:26:45.766Z,4.00
2022-09-12T03:29:19.548Z,3.70
2022-09-12T03:31:58.335Z,3.90
2022-09-12T03:34:30.295Z,4.30
2022-09-12T03:37:01.302Z,4.40
2022-09-12T03:39:32.315Z,4.60
2022-09-12T03:42:03.284Z,5.20
2022-09-12T03:44:34.264Z,5.00
2022-09-12T03:47:10.560Z,5.00
2022-09-12T03:49:42.211Z,4.40
2022-09-12T03:52:13.181Z,3.90
2022-09-12T03:59:43.127Z,3.60
2022-09-12T04:02:14.170Z,3.50
2022-09-12T04:04:49.037Z,3.90
2022-09-12T04:07:19.876Z,3.80
2022-09-12T04:09:51.075Z,3.20
2022-09-12T04:12:21.926Z,3.70
2022-09-12T04:14:52.634Z,4.00
2022-09-12T04:17:23.615Z,4.40
2022-09-12T04:19:54.454Z,3.70
2022-09-12T04:22:25.746Z,4.20
2022-09-12T04:24:56.882Z,4.30
2022-09-12T04:27:28.400Z,4.40
2022-09-12T04:30:00.215Z,4.70
2022-09-12T04:32:32.285Z,3.80
2022-09-12T04:35:03.309Z,4.00
2022-09-12T04:37:34.282Z,4.40
2022-09-12T04:40:06.136Z,4.00
2022-09-12T04:42:36.901Z,4.40
2022-09-12T04:45:09.545Z,4.30
2022-09-12T04:47:40.297Z,4.50
2022-09-12T04:50:12.530Z,4.30
2022-09-12T04:52:43.628Z,4.00
2022-09-12T04:55:14.747Z,4.50
2022-09-12T04:57:45.509Z,4.60
2022-09-12T05:02:46.526Z,4.50
2022-09-12T05:10:16.553Z,3.70
2022-09-12T05:12:48.400Z,4.90
2022-09-12T05:15:19.133Z,3.90
2022-09-12T05:17:50.112Z,4.10
2022-09-12T05:20:21.708Z,4.40
2022-09-12T05:22:52.964Z,4.40
2022-09-12T05:25:23.849Z,4.40
2022-09-12T05:27:56.938Z,4.20
2022-09-12T05:30:28.175Z,4.60
2022-09-12T05:32:59.380Z,3.70
2022-09-12T05:35:30.236Z,3.70
2022-09-12T05:38:01.023Z,4.30
2022-09-12T05:43:02.219Z,4.90
2022-09-12T05:45:33.758Z,5.50
2022-09-12T05:48:05.470Z,5.90
2022-09-12T05:50:36.239Z,6.70
2022-09-12T05:53:08.733Z,6.70
2022-09-12T05:55:41.952Z,6.50
2022-09-12T05:58:13.274Z,6.20
2022-09-12T06:00:44.321Z,6.00
2022-09-12T06:03:15.304Z,5.60
2022-09-12T06:05:50.482Z,6.30
2022-09-12T06:08:21.669Z,5.50
2022-09-12T06:10:52.827Z,5.80
2022-09-12T06:13:23.802Z,5.50
2022-09-12T06:15:55.227Z,5.60
2022-09-12T06:18:26.275Z,5.80
2022-09-12T06:20:57.488Z,5.60
2022-09-12T06:25:58.842Z,4.90
2022-09-12T06:28:29.925Z,5.30
2022-09-12T06:31:06.438Z,4.30
2022-09-12T06:36:12.554Z,4.70
2022-09-12T06:38:44.435Z,4.20
2022-09-12T06:41:16.635Z,4.70
2022-09-12T06:43:47.487Z,4.60
2022-09-12T06:46:19.135Z,3.50
2022-09-12T06:48:51.075Z,3.10
2022-09-12T06:51:22.751Z,3.30
2022-09-12T06:53:55.935Z,2.80
2022-09-12T06:56:28.651Z,2.50
2022-09-12T06:59:00.548Z,2.20
2022-09-12T07:01:33.264Z,2.20
2022-09-12T07:04:05.793Z,2.80
2022-09-12T07:06:41.080Z,2.60
2022-09-12T07:09:16.419Z,2.40
2022-09-12T07:11:48.048Z,2.50
2022-09-12T07:14:19.153Z,2.60
2022-09-12T07:16:50.509Z,2.40
2022-09-12T07:19:21.314Z,2.20
2022-09-12T07:21:57.947Z,2.40
2022-09-12T07:24:30.271Z,2.20
2022-09-12T07:27:01.215Z,2.10
2022-09-12T07:29:36.986Z,2.10
2022-09-12T07:32:09.323Z,2.20
2022-09-12T07:34:40.443Z,2.10
2022-09-12T07:37:11.726Z,1.70
2022-09-12T07:39:43.010Z,2.00
2022-09-12T07:42:14.772Z,1.90
2022-09-12T07:44:46.285Z,2.00
2022-09-12T07:47:18.186Z,1.70
2022-09-12T07:49:49.066Z,1.40
2022-09-12T07:52:20.230Z,1.60
2022-09-12T07:54:51.425Z,1.80
2022-09-12T07:57:22.445Z,1.60
2022-09-12T07:59:53.576Z,1.80
2022-09-12T08:02:24.567Z,1.90
2022-09-12T08:04:55.340Z,1.80
2022-09-12T08:07:26.569Z,1.50
2022-09-12T08:09:57.603Z,1.40
2022-09-12T08:12:28.446Z,1.50
2022-09-12T08:15:00.121Z,1.20
2022-09-12T08:17:31.750Z,1.60
2022-09-12T08:20:03.006Z,2.00
2022-09-12T08:22:34.681Z,2.00
2022-09-12T08:25:08.946Z,1.60
2022-09-12T08:27:39.806Z,1.90
2022-09-12T08:30:12.973Z,1.50
2022-09-12T08:32:44.272Z,2.10
2022-09-12T08:35:15.696Z,2.00
2022-09-12T08:37:46.790Z,1.80
2022-09-12T08:40:19.928Z,2.10
2022-09-12T08:43:02.469Z,1.40
2022-09-12T08:45:38.093Z,1.90
2022-09-12T08:48:13.752Z,1.70
2022-09-12T08:50:49.762Z,1.80
2022-09-12T08:53:26.072Z,1.50
2022-09-12T08:56:00.576Z,1.60
2022-09-12T08:58:37.662Z,1.60
2022-09-12T09:01:15.441Z,1.70
2022-09-12T09:03:58.813Z,1.70
2022-09-12T09:06:54.008Z,1.30
2022-09-12T09:09:39.859Z,1.70
2022-09-12T09:12:20.031Z,1.40
2022-09-12T09:15:06.049Z,1.50
2022-09-12T09:17:42.794Z,1.50
2022-09-12T09:20:24.234Z,1.60
2022-09-12T09:22:59.887Z,1.90
2022-09-12T09:25:42.348Z,1.90
2022-09-12T09:28:21.008Z,2.00
2022-09-12T09:30:52.312Z,1.70
2022-09-12T09:33:27.561Z,1.60
2022-09-12T09:36:14.167Z,1.60
2022-09-12T09:38:51.246Z,2.00
2022-09-12T09:41:37.395Z,1.60
2022-09-12T09:46:44.234Z,1.20
2022-09-12T09:49:18.061Z,1.30
2022-09-12T09:51:49.463Z,1.40
2022-09-12T09:54:25.704Z,1.30
2022-09-12T09:56:57.364Z,1.10
2022-09-12T09:59:31.337Z,1.20
2022-09-12T10:02:05.408Z,1.40
2022-09-12T10:04:41.507Z,1.20
2022-09-12T10:07:21.811Z,1.40
2022-09-12T10:10:08.312Z,1.30
2022-09-12T10:12:39.904Z,1.10
2022-09-12T10:15:20.734Z,1.40
2022-09-12T10:17:53.664Z,1.20
2022-09-12T10:20:37.281Z,1.20
2022-09-12T10:23:30.691Z,1.10
2022-09-12T10:26:04.871Z,1.30
2022-09-12T10:28:40.001Z,1.10
2022-09-12T10:31:16.732Z,1.20
2022-09-12T10:33:52.817Z,1.20
2022-09-12T10:36:24.375Z,1.40
2022-09-12T10:38:58.286Z,1.30
2022-09-12T10:41:36.240Z,1.40
2022-09-12T10:44:17.002Z,1.50
2022-09-12T10:46:48.842Z,1.10
2022-09-12T10:49:28.693Z,1.90
2022-09-12T10:52:16.512Z,1.40
2022-09-12T10:54:47.949Z,1.50
2022-09-12T10:57:38.284Z,1.50
2022-09-12T11:00:17.100Z,1.50
2022-09-12T11:02:59.494Z,1.50
2022-09-12T11:05:42.974Z,1.70
2022-09-12T11:08:35.549Z,1.30
2022-09-12T11:11:14.923Z,1.90
2022-09-12T11:14:01.256Z,1.60
2022-09-12T11:16:42.103Z,1.40
2022-09-12T11:19:38.869Z,1.60
2022-09-12T11:22:28.649Z,1.60
2022-09-12T11:25:21.077Z,1.60
2022-09-12T11:28:17.356Z,1.70
2022-09-12T11:30:59.900Z,1.80
2022-09-12T11:36:28.072Z,2.00
2022-09-12T11:39:11.592Z,1.70
2022-09-12T11:41:44.783Z,1.80
2022-09-12T11:44:21.959Z,2.00
2022-09-12T11:46:53.011Z,1.90
2022-09-12T11:49:35.753Z,2.10
2022-09-12T11:52:14.587Z,1.80
2022-09-12T11:54:53.497Z,1.60
2022-09-12T11:57:32.230Z,1.80
2022-09-12T12:00:07.965Z,1.80
2022-09-12T12:02:49.394Z,1.40
2022-09-12T12:05:25.820Z,1.80
2022-09-12T12:10:33.082Z,1.50
2022-09-12T12:13:13.309Z,1.60
2022-09-12T12:15:49.581Z,1.90
2022-09-12T12:18:23.890Z,1.60
2022-09-12T12:20:56.830Z,1.70
2022-09-12T12:23:31.353Z,1.50
2022-09-12T12:26:04.544Z,1.70
2022-09-12T12:29:02.556Z,1.60
2022-09-12T12:31:53.753Z,2.10
2022-09-12T12:34:31.360Z,2.00
2022-09-12T12:37:40.984Z,2.00
2022-09-12T12:40:22.628Z,2.10
2022-09-12T12:43:31.603Z,2.10
2022-09-12T12:46:06.070Z,2.10
2022-09-12T12:49:11.645Z,2.30
2022-09-12T12:52:01.494Z,2.10
2022-09-12T12:54:50.914Z,2.50
2022-09-12T12:57:39.461Z,2.10
2022-09-12T13:00:28.245Z,2.20
2022-09-12T13:03:02.605Z,2.50
2022-09-12T13:05:42.663Z,1.80
2022-09-12T13:08:31.730Z,2.20
2022-09-12T13:11:08.772Z,2.30
2022-09-12T13:13:48.301Z,2.00
2022-09-12T13:16:42.329Z,1.80
2022-09-12T13:19:19.775Z,1.80
2022-09-12T13:22:01.098Z,1.80
2022-09-12T13:24:32.361Z,1.80
2022-09-12T13:27:04.590Z,1.70
2022-09-12T13:29:35.938Z,1.80
2022-09-12T13:32:07.471Z,2.10
2022-09-12T13:34:45.760Z,1.90
2022-09-12T13:37:33.543Z,2.10
2022-09-12T13:40:17.686Z,1.80
2022-09-12T13:42:50.942Z,1.90
2022-09-12T13:45:24.737Z,1.70
2022-09-12T13:47:58.997Z,1.80
2022-09-12T13:50:32.673Z,1.80
2022-09-12T13:53:07.080Z,1.80
2022-09-12T13:55:41.636Z,1.40
2022-09-12T13:58:21.581Z,1.50
2022-09-12T14:01:07.351Z,1.70
2022-09-12T14:04:01.781Z,2.40
2022-09-12T14:06:44.844Z,1.70
2022-09-12T14:09:32.152Z,1.50
2022-09-12T14:12:03.521Z,1.30
2022-09-12T14:14:37.589Z,1.60
2022-09-12T14:17:23.804Z,1.50
2022-09-12T14:19:55.065Z,1.50
2022-09-12T14:22:28.319Z,1.60
2022-09-12T14:25:02.077Z,1.40
2022-09-12T14:27:39.972Z,1.60
2022-09-12T14:30:24.290Z,1.70
2022-09-12T14:33:22.189Z,1.70
2022-09-12T14:36:08.361Z,1.60
2022-09-12T14:38:42.517Z,1.90
2022-09-12T14:41:15.408Z,1.50
2022-09-12T14:43:52.132Z,1.90
2022-09-12T14:46:28.599Z,1.90
2022-09-12T14:49:03.433Z,2.20
2022-09-12T14:51:39.286Z,2.00
2022-09-12T14:54:38.792Z,1.60
2022-09-12T14:57:36.794Z,1.80
2022-09-12T15:00:24.526Z,1.90
2022-09-12T15:02:55.975Z,2.00
2022-09-12T15:05:29.766Z,1.80
2022-09-12T15:08:04.357Z,2.40
2022-09-12T15:10:38.297Z,2.00
2022-09-12T15:13:21.463Z,2.10
2022-09-12T15:15:55.908Z,1.90
2022-09-12T15:18:28.957Z,2.10
2022-09-12T15:21:04.736Z,1.80
2022-09-12T15:23:40.260Z,2.10
2022-09-12T15:26:13.296Z,2.60
2022-09-12T15:28:44.534Z,2.10
2022-09-12T15:31:26.310Z,2.10
2022-09-12T15:33:59.148Z,2.00
2022-09-12T15:36:30.374Z,1.90
2022-09-12T15:39:01.175Z,1.80
2022-09-12T15:41:35.671Z,1.90
2022-09-12T15:44:09.363Z,2.00
2022-09-12T15:46:40.552Z,2.00
2022-09-12T15:49:12.010Z,1.80
2022-09-12T15:51:42.907Z,1.90
2022-09-12T15:54:16.284Z,1.90
2022-09-12T15:56:47.214Z,1.80
2022-09-12T15:59:18.319Z,2.40
2022-09-12T16:01:49.859Z,1.90
2022-09-12T16:04:25.049Z,3.40
2022-09-12T16:06:57.523Z,2.10
2022-09-12T16:09:28.901Z,1.60
2022-09-12T16:11:59.913Z,2.20
2022-09-12T16:14:31.035Z,3.30
2022-09-12T16:17:01.796Z,3.60
2022-09-12T16:19:33.403Z,3.40
2022-09-12T16:22:04.299Z,2.00
2022-09-12T16:24:35.530Z,1.70
2022-09-12T16:27:07.042Z,1.80
2022-09-12T16:29:38.447Z,1.90
2022-09-12T16:32:09.591Z,2.00
2022-09-12T16:34:40.678Z,2.30
2022-09-12T16:37:11.635Z,3.10
2022-09-12T16:39:43.067Z,5.40
2022-09-12T16:42:13.962Z,3.30
2022-09-12T16:44:44.982Z,1.90
2022-09-12T16:47:16.456Z,1.80
2022-09-12T16:49:47.440Z,2.00
2022-09-12T16:52:19.391Z,2.40
2022-09-12T16:54:51.024Z,2.10
2022-09-12T16:57:22.900Z,2.20
2022-09-12T16:59:54.471Z,2.50
2022-09-12T17:02:25.472Z,3.00
2022-09-12T17:05:02.588Z,2.40
2022-09-12T17:07:34.700Z,2.30
2022-09-12T17:10:06.515Z,2.20
2022-09-12T17:12:39.037Z,2.90
2022-09-12T17:15:14.966Z,2.00
2022-09-12T17:18:15.269Z,2.00
2022-09-12T17:20:46.495Z,2.00
2022-09-12T17:23:18.266Z,1.60
2022-09-12T17:25:57.020Z,2.20
2022-09-12T17:28:29.204Z,2.30
2022-09-12T17:31:01.793Z,2.20
2022-09-12T17:33:33.263Z,2.00
2022-09-12T17:36:06.168Z,2.40
2022-09-12T17:38:38.084Z,2.80
2022-09-12T17:41:11.754Z,2.80
2022-09-12T17:43:42.798Z,2.80
2022-09-12T17:46:14.099Z,2.50
2022-09-12T17:48:45.178Z,2.60
2022-09-12T17:51:18.146Z,2.30
2022-09-12T17:53:49.623Z,2.40
2022-09-12T17:56:29.876Z,2.50
2022-09-12T17:59:02.512Z,3.10
2022-09-12T18:01:51.971Z,2.80
2022-09-12T18:04:23.272Z,2.90
2022-09-12T18:06:55.226Z,3.00
2022-09-12T18:09:26.720Z,2.30
2022-09-12T18:11:57.799Z,2.50
2022-09-12T18:14:29.261Z,2.70
2022-09-12T18:17:00.311Z,2.80
2022-09-12T18:19:32.054Z,2.80
2022-09-12T18:22:03.581Z,2.70
2022-09-12T18:24:34.640Z,3.10
2022-09-12T18:27:06.745Z,3.20
2022-09-12T18:29:37.598Z,3.10
2022-09-12T18:34:38.150Z,2.40
2022-09-12T18:39:42.701Z,2.20
2022-09-12T18:42:13.747Z,2.40
2022-09-12T18:44:45.004Z,2.60
2022-09-12T18:47:16.738Z,2.80
2022-09-12T18:49:47.504Z,2.50
2022-09-12T18:52:19.147Z,2.50
2022-09-12T18:54:50.204Z,2.60
2022-09-12T18:59:53.023Z,2.60
2022-09-12T19:02:28.432Z,2.50
2022-09-12T19:04:59.866Z,2.50
2022-09-12T19:07:31.691Z,2.70
2022-09-12T19:10:02.731Z,2.70
2022-09-12T19:12:33.844Z,3.10
2022-09-12T19:15:05.369Z,2.90
2022-09-12T19:17:36.455Z,2.80
2022-09-12T19:20:08.272Z,2.70
2022-09-12T19:22:39.576Z,3.60
2022-09-12T19:25:21.470Z,9.30
2022-09-12T19:27:52.414Z,5.90
2022-09-12T19:30:23.391Z,6.10
2022-09-12T19:32:54.677Z,4.30
2022-09-12T19:35:25.439Z,3.50
2022-09-12T19:37:56.785Z,3.60
2022-09-12T19:40:28.009Z,5.50
2022-09-12T19:42:58.942Z,3.20
2022-09-12T19:45:30.122Z,3.70
2022-09-12T19:48:01.261Z,3.70
2022-09-12T19:50:34.231Z,3.70
2022-09-12T19:53:05.186Z,4.30
2022-09-12T19:55:37.255Z,5.90
2022-09-12T19:58:08.638Z,10.80
2022-09-12T20:00:39.729Z,13.00
2022-09-12T20:03:10.491Z,9.10
2022-09-12T20:08:14.422Z,3.90
2022-09-12T20:10:45.672Z,4.10
2022-09-12T20:13:16.539Z,6.40
2022-09-12T20:18:17.519Z,4.90
2022-09-12T20:20:49.019Z,5.90
2022-09-12T20:23:19.893Z,4.80
2022-09-12T20:25:51.362Z,4.50
2022-09-12T20:28:22.291Z,3.90
2022-09-12T20:35:52.329Z,3.50
2022-09-12T20:38:23.271Z,3.40
2022-09-12T20:40:54.143Z,3.50
2022-09-12T20:45:54.667Z,3.20
2022-09-12T20:48:25.719Z,3.60
2022-09-12T20:50:59.208Z,3.70
2022-09-12T20:53:34.848Z,4.00
2022-09-12T20:56:07.397Z,3.50
2022-09-12T20:58:43.034Z,3.50
2022-09-12T21:01:17.069Z,3.50
2022-09-12T21:03:48.249Z,3.90
2022-09-12T21:06:20.120Z,4.10
2022-09-12T21:08:51.559Z,3.90
2022-09-12T21:11:23.228Z,3.60
2022-09-12T21:13:54.365Z,3.90
2022-09-12T21:16:25.881Z,3.50
2022-09-12T21:18:58.577Z,3.50
2022-09-12T21:21:29.657Z,3.50
2022-09-12T21:24:03.722Z,3.60
2022-09-12T21:26:35.174Z,3.50
2022-09-12T21:29:06.352Z,4.10
2022-09-12T21:31:37.561Z,4.00
2022-09-12T21:34:08.558Z,3.30
2022-09-12T21:39:09.126Z,3.70
2022-09-12T21:41:40.564Z,4.00
2022-09-12T21:44:11.623Z,3.70
2022-09-12T21:46:42.594Z,4.20
2022-09-12T21:49:13.589Z,4.00
2022-09-12T21:51:44.259Z,4.00
2022-09-12T21:54:15.367Z,4.00
2022-09-12T21:59:15.503Z,3.80
2022-09-12T22:04:16.327Z,3.90
2022-09-12T22:06:47.502Z,3.60
2022-09-12T22:09:18.779Z,3.50
2022-09-12T22:11:49.995Z,3.60
2022-09-12T22:14:21.342Z,3.40
2022-09-12T22:16:52.678Z,3.80
2022-09-12T22:19:23.760Z,4.10
2022-09-12T22:22:12.238Z,4.20
2022-09-12T22:24:43.294Z,4.00
2022-09-12T22:27:14.372Z,3.90
2022-09-12T22:29:46.266Z,3.90
2022-09-12T22:32:17.339Z,3.60
2022-09-12T22:37:17.941Z,3.30
2022-09-12T22:39:48.943Z,4.30
2022-09-12T22:42:19.985Z,4.10
2022-09-12T22:49:50.791Z,4.00
2022-09-12T22:54:51.466Z,3.40
2022-09-12T22:57:22.655Z,4.30
2022-09-12T22:59:53.633Z,4.00
2022-09-12T23:02:24.459Z,3.30
2022-09-12T23:04:55.443Z,3.70
2022-09-12T23:09:55.633Z,3.50
2022-09-12T23:12:29.082Z,3.90
2022-09-12T23:15:02.615Z,3.80
2022-09-12T23:17:35.086Z,4.00
2022-09-12T23:20:07.265Z,3.30
2022-09-12T23:22:39.518Z,4.10
2022-09-12T23:25:11.866Z,4.00
2022-09-12T23:27:43.456Z,3.80
2022-09-12T23:30:21.664Z,3.40
2022-09-12T23:32:54.048Z,3.90
2022-09-12T23:37:54.393Z,3.50
2022-09-12T23:40:25.362Z,4.00
2022-09-12T23:45:25.730Z,3.90
2022-09-12T23:47:56.596Z,3.90
2022-09-12T23:50:27.511Z,3.70
2022-09-12T23:52:58.303Z,4.00
2022-09-12T23:55:29.741Z,4.40
2022-09-12T23:58:00.679Z,4.80
